Time;durP1;ratioP1;P1;durP2;ratioP2;P2;SDS_P1;SDS_P2;PMS_P1;PMS_P2;Temp;Humidity;BMP_temperature;BMP_pressure;BME280_temperature;BME280_humidity;BME280_pressure;Samples;Min_cycle;Max_cycle;Signal;HPM_P1;HPM_P2
2023/03/23 00:01:49;;;;;;;16.70;6.37;;;;;;;7.63;71.63;101160.98;1915225;75;21535;-38
2023/03/23 00:04:18;;;;;;;16.25;6.33;;;;;;;7.61;71.68;101152.30;1908184;75;21390;-43
2023/03/23 00:06:47;;;;;;;15.68;6.58;;;;;;;7.60;71.78;101149.27;1902753;75;21166;-42
2023/03/23 00:09:17;;;;;;;13.72;5.80;;;;;;;7.59;71.80;101146.23;1902852;74;21021;-42
2023/03/23 00:11:45;;;;;;;14.85;5.62;;;;;;;7.55;71.89;101147.19;1903045;75;21545;-41
2023/03/23 00:14:14;;;;;;;21.17;6.12;;;;;;;7.53;71.89;101147.21;1895345;75;21040;-41
2023/03/23 00:16:44;;;;;;;20.05;6.12;;;;;;;7.53;71.89;101146.36;1849522;77;21099;-44
2023/03/23 00:19:13;;;;;;;13.70;6.28;;;;;;;7.51;71.88;101152.08;1849517;77;21107;-41
2023/03/23 00:21:43;;;;;;;16.37;6.35;;;;;;;7.50;71.90;101143.78;1849657;77;21058;-41
2023/03/23 00:24:17;;;;;;;16.50;6.15;;;;;;;7.47;71.95;101145.15;1849611;77;21049;-41
2023/03/23 00:26:48;;;;;;;14.00;6.22;;;;;;;7.45;72.01;101144.31;1853534;75;21013;-41
2023/03/23 00:29:20;;;;;;;21.77;6.33;;;;;;;7.44;72.07;101139.98;1849523;77;21014;-42
2023/03/23 00:31:51;;;;;;;17.40;6.42;;;;;;;7.43;72.09;101142.17;1849330;77;21139;-41
2023/03/23 00:34:24;;;;;;;13.98;5.85;;;;;;;7.40;72.11;101142.26;1849540;77;21085;-40
2023/03/23 00:36:56;;;;;;;18.75;6.28;;;;;;;7.39;72.04;101143.14;1853207;75;21037;-39
2023/03/23 00:39:26;;;;;;;16.00;6.58;;;;;;;7.37;71.92;101146.23;1849779;77;21591;-39
2023/03/23 00:42:00;;;;;;;23.70;6.80;;;;;;;7.32;71.92;101133.21;1849578;77;21078;-38
2023/03/23 00:44:28;;;;;;;12.85;5.78;;;;;;;7.30;71.88;101135.89;1849305;77;21049;-38
2023/03/23 00:46:56;;;;;;;13.70;5.85;;;;;;;7.28;71.94;101132.86;1850597;75;21002;-38
2023/03/23 00:49:26;;;;;;;17.48;7.22;;;;;;;7.26;72.00;101138.13;1849553;77;21046;-38
2023/03/23 00:51:57;;;;;;;16.32;6.25;;;;;;;7.24;72.12;101139.06;1849846;77;21045;-38
2023/03/23 00:54:28;;;;;;;19.70;7.60;;;;;;;7.22;72.16;101136.46;1849550;77;21637;-39
2023/03/23 00:56:57;;;;;;;16.85;7.22;;;;;;;7.21;72.24;101141.30;1853051;75;21472;-38
2023/03/23 00:59:26;;;;;;;22.30;6.37;;;;;;;7.19;72.27;101135.66;1849547;77;21022;-39
2023/03/23 01:01:54;;;;;;;16.73;6.65;;;;;;;7.18;72.28;101145.27;1849527;77;21108;-38
2023/03/23 01:04:23;;;;;;;17.52;7.10;;;;;;;7.15;72.28;101144.87;1849462;77;21179;-40
2023/03/23 01:06:52;;;;;;;16.42;8.65;;;;;;;7.14;72.30;101144.47;1896865;75;21562;-40
2023/03/23 01:09:24;;;;;;;37.70;19.60;;;;;;;7.13;72.26;101144.48;1866375;75;21092;-39
2023/03/23 01:11:55;;;;;;;58.42;26.40;;;;;;;7.11;72.17;101146.27;1849640;77;21006;-40
2023/03/23 01:14:25;;;;;;;49.55;26.80;;;;;;;7.03;72.27;101142.95;1849658;77;21062;-38
2023/03/23 01:16:53;;;;;;;38.85;22.82;;;;;;;6.98;72.41;101148.25;1890288;75;21529;-38
2023/03/23 01:19:22;;;;;;;46.83;26.48;;;;;;;6.95;72.41;101143.94;1902894;75;21045;-37
2023/03/23 01:21:51;;;;;;;43.50;24.82;;;;;;;6.95;72.42;101145.67;1903041;75;21111;-37
2023/03/23 01:24:19;;;;;;;44.75;22.65;;;;;;;6.93;72.48;101147.45;1903223;75;21548;-38
2023/03/23 01:26:49;;;;;;;21.45;12.65;;;;;;;6.93;72.51;101148.34;1873850;75;21108;-38
2023/03/23 01:29:18;;;;;;;30.77;18.60;;;;;;;6.91;72.57;101144.86;1849732;77;21097;-37
2023/03/23 01:31:47;;;;;;;32.93;22.00;;;;;;;6.88;72.53;101136.20;1849637;77;21074;-38
2023/03/23 01:34:15;;;;;;;40.03;23.20;;;;;;;6.88;72.62;101141.43;1849609;77;21073;-37
2023/03/23 01:36:44;;;;;;;42.38;27.27;;;;;;;6.84;72.78;101143.27;1868746;75;21036;-37
2023/03/23 01:39:13;;;;;;;50.67;29.57;;;;;;;6.84;72.82;101134.11;1903141;75;21041;-39
2023/03/23 01:41:41;;;;;;;45.25;29.10;;;;;;;6.84;72.86;101136.72;1903042;75;21025;-38
2023/03/23 01:44:20;;;;;;;59.10;28.62;;;;;;;6.83;72.86;101141.52;1902854;75;21142;-40
2023/03/23 01:46:54;;;;;;;44.15;28.50;;;;;;;6.82;72.91;101138.48;1897432;75;21068;-39
2023/03/23 01:49:26;;;;;;;41.98;21.90;;;;;;;6.80;72.89;101131.09;1903144;75;21527;-39
2023/03/23 01:51:58;;;;;;;33.90;18.62;;;;;;;6.77;72.86;101136.41;1903000;75;21064;-40
2023/03/23 01:54:28;;;;;;;31.10;17.57;;;;;;;6.72;72.96;101143.47;1903197;75;21110;-39
2023/03/23 01:57:02;;;;;;;40.45;22.52;;;;;;;6.71;72.88;101137.38;1900755;75;21127;-40
2023/03/23 01:59:32;;;;;;;36.17;20.52;;;;;;;6.70;72.93;101143.48;1825066;78;21026;-41
2023/03/23 02:02:05;;;;;;;37.30;24.50;;;;;;;6.69;72.94;101143.50;1805594;78;21066;-40
2023/03/23 02:04:35;;;;;;;35.28;23.25;;;;;;;6.67;73.03;101142.67;1829670;77;21122;-40
2023/03/23 02:07:04;;;;;;;36.50;23.77;;;;;;;6.64;73.04;101139.67;1833137;78;21061;-39
2023/03/23 02:09:35;;;;;;;37.33;23.92;;;;;;;6.63;73.07;101142.30;1833569;77;21613;-40
2023/03/23 02:12:04;;;;;;;33.58;22.30;;;;;;;6.61;73.12;101137.55;1870672;77;21065;-39
2023/03/23 02:14:34;;;;;;;38.78;22.10;;;;;;;6.56;73.27;101137.15;1871054;75;21107;-39
2023/03/23 02:17:17;;;;;;;26.60;14.95;;;;;;;6.54;73.42;101137.63;1870631;77;21029;-39
2023/03/23 02:20:06;;;;;;;25.23;9.70;;;;;;;6.52;73.72;101141.16;1830957;77;21098;-40
2023/03/23 02:22:50;;;;;;;20.43;10.78;;;;;;;6.47;73.96;101141.22;1870605;77;21076;-39
2023/03/23 02:25:55;;;;;;;20.05;11.00;;;;;;;6.46;73.79;101146.50;1829777;78;21126;-38
2023/03/23 02:28:44;;;;;;;24.45;13.03;;;;;;;6.45;73.67;101144.31;1870654;76;21025;-39
2023/03/23 02:31:25;;;;;;;24.50;16.77;;;;;;;6.43;73.56;101136.08;1885986;76;21040;-40
2023/03/23 02:34:21;;;;;;;32.10;17.55;;;;;;;6.42;73.55;101137.84;1786581;76;21091;-41
2023/03/23 02:36:52;;;;;;;28.07;16.87;;;;;;;6.41;73.62;101142.64;1885440;76;21100;-40
2023/03/23 02:39:36;;;;;;;30.30;21.75;;;;;;;6.40;73.74;101139.62;1887694;75;21167;-40
2023/03/23 02:42:08;;;;;;;33.35;23.40;;;;;;;6.39;73.88;101136.56;1918509;75;21129;-40
2023/03/23 02:44:40;;;;;;;33.38;23.52;;;;;;;6.37;74.03;101135.28;1918534;75;21032;-39
2023/03/23 02:47:11;;;;;;;28.92;20.60;;;;;;;6.37;74.06;101135.73;1918073;75;21044;-40
2023/03/23 02:49:43;;;;;;;38.35;18.45;;;;;;;6.36;74.12;101133.98;1916800;75;21510;-41
2023/03/23 02:52:15;;;;;;;29.12;15.15;;;;;;;6.35;74.24;101133.59;1885939;76;21564;-40
2023/03/23 02:54:47;;;;;;;22.20;10.68;;;;;;;6.33;74.27;101127.06;1886075;76;21541;-41
2023/03/23 02:57:16;;;;;;;17.73;8.20;;;;;;;6.33;74.19;101131.44;1886000;76;21125;-42
2023/03/23 02:59:46;;;;;;;21.87;10.40;;;;;;;6.32;74.14;101132.31;1807305;79;21478;-41
2023/03/23 03:02:27;;;;;;;22.27;13.48;;;;;;;6.31;74.05;101135.37;1832626;78;21048;-41
2023/03/23 03:05:11;;;;;;;31.05;17.65;;;;;;;6.26;74.02;101133.72;1830930;78;21114;-41
2023/03/23 03:07:55;;;;;;;25.72;13.93;;;;;;;6.21;74.00;101132.92;1837792;77;21115;-41
2023/03/23 03:10:25;;;;;;;;;;;;;;;6.17;73.88;101132.09;1840491;77;21475;-41
2023/03/23 03:13:06;;;;;;;19.82;9.93;;;;;;;6.18;73.76;101129.47;1838159;77;20130;-40
2023/03/23 03:15:40;;;;;;;20.32;9.45;;;;;;;6.12;73.81;101128.27;1845123;77;21109;-41
2023/03/23 03:18:15;;;;;;;22.77;9.65;;;;;;;6.06;74.09;101129.63;1838104;78;21526;-41
2023/03/23 03:20:46;;;;;;;28.67;12.98;;;;;;;6.04;74.07;101130.10;1838996;78;21018;-39
2023/03/23 03:23:18;;;;;;;29.37;13.98;;;;;;;6.04;74.12;101127.48;1864033;77;21062;-40
2023/03/23 03:25:49;;;;;;;27.37;14.15;;;;;;;6.05;74.11;101130.54;1870253;77;21542;-39
2023/03/23 03:28:22;;;;;;;16.50;9.43;;;;;;;6.04;74.16;101132.72;1837004;78;21187;-39
2023/03/23 03:30:55;;;;;;;20.57;10.97;;;;;;;6.03;74.14;101134.93;1837750;78;21061;-40
2023/03/23 03:33:25;;;;;;;24.12;8.35;;;;;;;6.01;74.14;101133.20;1816602;78;21136;-39
2023/03/23 03:35:57;;;;;;;19.77;7.58;;;;;;;5.99;74.13;101137.14;1839650;78;21076;-43
2023/03/23 03:38:28;;;;;;;18.98;7.15;;;;;;;5.98;74.12;101134.12;1838922;78;21128;-39
2023/03/23 03:40:57;;;;;;;18.57;9.45;;;;;;;5.97;74.12;101126.70;1839231;78;21067;-39
2023/03/23 03:43:26;;;;;;;25.52;11.10;;;;;;;5.98;74.12;101131.50;1841553;77;20991;-39
2023/03/23 03:45:55;;;;;;;25.75;12.18;;;;;;;5.99;74.11;101130.19;1802558;80;21152;-39
2023/03/23 03:48:24;;;;;;;22.05;13.43;;;;;;;6.00;74.08;101133.66;1802420;80;21041;-38
2023/03/23 03:50:56;;;;;;;29.95;11.57;;;;;;;6.01;74.09;101140.59;1802393;80;21061;-38
2023/03/23 03:53:23;;;;;;;25.52;11.63;;;;;;;6.02;74.12;101142.34;1810789;78;21104;-38
2023/03/23 03:55:55;;;;;;;23.52;12.55;;;;;;;6.03;74.13;101137.55;1838997;78;21508;-40
2023/03/23 03:58:25;;;;;;;29.95;15.70;;;;;;;6.05;74.16;101141.00;1838930;78;21167;-40
2023/03/23 04:01:01;;;;;;;28.25;18.30;;;;;;;6.07;74.14;101147.48;1837089;78;21110;-40
2023/03/23 04:03:32;;;;;;;30.55;19.48;;;;;;;6.09;74.12;101146.59;1838702;78;21109;-39
2023/03/23 04:06:09;;;;;;;24.87;12.65;;;;;;;6.08;74.21;101149.22;1837546;76;21510;-41
2023/03/23 04:08:38;;;;;;;25.25;11.80;;;;;;;6.07;74.14;101147.06;1870487;77;21592;-41
2023/03/23 04:11:08;;;;;;;24.67;8.45;;;;;;;6.11;74.16;101153.97;1870671;77;21483;-40
2023/03/23 04:13:37;;;;;;;17.90;7.55;;;;;;;6.10;74.32;101155.30;1870583;77;21479;-40
2023/03/23 04:16:09;;;;;;;26.05;7.72;;;;;;;6.07;74.58;101161.86;1902127;74;21138;-41
2023/03/23 04:18:38;;;;;;;16.52;7.35;;;;;;;6.06;74.63;101159.70;1902908;75;21582;-41
2023/03/23 04:21:07;;;;;;;19.62;7.72;;;;;;;6.08;74.60;101157.92;1902938;75;21064;-40
2023/03/23 04:23:38;;;;;;;21.00;7.83;;;;;;;6.11;74.62;101153.11;1902978;75;21471;-39
2023/03/23 04:26:07;;;;;;;18.12;7.37;;;;;;;6.15;74.61;101158.27;1862200;75;21050;-39
2023/03/23 04:28:38;;;;;;;17.98;8.05;;;;;;;6.12;74.78;101150.48;1849386;77;21065;-38
2023/03/23 04:31:14;;;;;;;19.00;7.08;;;;;;;6.16;74.80;101156.50;1842355;77;21448;-40
2023/03/23 04:33:46;;;;;;;18.12;8.05;;;;;;;6.25;74.65;101154.21;1849285;77;21030;-40
2023/03/23 04:36:15;;;;;;;16.60;7.47;;;;;;;6.33;74.47;101157.59;1884625;74;21101;-40
2023/03/23 04:38:47;;;;;;;19.77;7.12;;;;;;;6.40;74.37;101157.93;1901633;75;21084;-40
2023/03/23 04:41:17;;;;;;;14.73;6.83;;;;;;;6.48;74.23;101160.42;1902270;75;21162;-40
2023/03/23 04:43:52;;;;;;;15.45;7.12;;;;;;;6.53;74.14;101158.16;1901258;75;21154;-42
2023/03/23 04:46:22;;;;;;;18.95;7.53;;;;;;;6.61;74.04;101159.78;1900501;74;21536;-41
2023/03/23 04:48:54;;;;;;;17.42;7.08;;;;;;;6.68;73.95;101160.11;1903219;75;21558;-41
2023/03/23 04:51:24;;;;;;;16.77;7.05;;;;;;;6.76;73.85;101166.92;1902944;75;21115;-41
2023/03/23 04:53:54;;;;;;;19.20;7.78;;;;;;;6.85;73.76;101159.37;1903467;75;21491;-41
2023/03/23 04:56:24;;;;;;;21.48;7.92;;;;;;;6.95;73.66;101162.27;1902837;74;21001;-42
2023/03/23 04:58:54;;;;;;;13.90;6.47;;;;;;;7.07;73.60;101165.56;1902912;75;21072;-41
2023/03/23 05:01:37;;;;;;;18.73;7.85;;;;;;;7.14;73.51;101165.41;1902844;75;21129;-41
2023/03/23 05:04:16;;;;;;;18.57;8.08;;;;;;;7.23;73.42;101161.77;1902255;75;21569;-39
2023/03/23 05:06:44;;;;;;;15.63;6.53;;;;;;;7.39;73.42;101161.48;1891364;75;21175;-41
2023/03/23 05:09:14;;;;;;;21.25;8.18;;;;;;;7.54;73.33;101166.41;1849610;77;21085;-41
2023/03/23 05:11:42;;;;;;;18.00;8.08;;;;;;;7.65;73.19;101160.50;1849944;77;21512;-41
2023/03/23 05:14:11;;;;;;;22.60;8.50;;;;;;;7.77;73.07;101159.41;1850188;75;21191;-43
2023/03/23 05:16:41;;;;;;;17.67;8.05;;;;;;;7.90;72.96;101165.27;1849827;77;21519;-41
2023/03/23 05:19:10;;;;;;;19.55;9.15;;;;;;;8.03;72.87;101164.09;1849689;77;21528;-38
2023/03/23 05:21:39;;;;;;;18.15;8.65;;;;;;;8.21;72.84;101161.98;1849821;77;21132;-38
2023/03/23 05:24:08;;;;;;;24.60;10.20;;;;;;;8.44;72.93;101157.08;1850947;75;21045;-37
2023/03/23 05:26:37;;;;;;;40.40;10.00;;;;;;;8.60;72.95;101160.67;1850891;75;21111;-36
2023/03/23 05:29:07;;;;;;;18.05;8.85;;;;;;;8.78;72.81;101159.33;1849874;77;21065;-44
2023/03/23 05:31:38;;;;;;;26.80;9.90;;;;;;;9.03;72.56;101159.59;1848349;77;21148;-44
2023/03/23 05:34:07;;;;;;;19.45;8.28;;;;;;;9.24;72.32;101163.40;1849968;77;21449;-39
2023/03/23 05:36:40;;;;;;;22.87;8.83;;;;;;;9.34;72.06;101162.27;1852392;75;21058;-40
2023/03/23 05:39:11;;;;;;;38.10;10.98;;;;;;;9.44;71.81;101164.17;1849581;77;21127;-40
2023/03/23 05:41:54;;;;;;;23.80;9.45;;;;;;;9.54;71.65;101165.66;1852099;76;21465;-40
2023/03/23 05:44:23;;;;;;;22.20;9.45;;;;;;;9.79;71.46;101159.69;1849652;77;21535;-38
2023/03/23 05:46:53;;;;;;;25.97;10.82;;;;;;;9.95;71.33;101166.23;1884876;74;21064;-39
2023/03/23 05:49:24;;;;;;;25.70;10.55;;;;;;;10.10;71.11;101172.80;1903315;75;21606;-39
2023/03/23 05:51:54;;;;;;;21.30;9.80;;;;;;;10.28;70.90;101169.22;1854240;75;21084;-40
2023/03/23 05:54:23;;;;;;;24.75;10.00;;;;;;;10.37;70.53;101169.81;1849965;77;21049;-42
2023/03/23 05:56:52;;;;;;;25.97;11.08;;;;;;;10.47;70.43;101170.38;1853062;75;21060;-42
2023/03/23 05:59:40;;;;;;;27.77;9.85;;;;;;;10.58;70.26;101170.04;1848974;77;21073;-44
2023/03/23 06:02:13;;;;;;;28.85;10.60;;;;;;;10.72;69.83;101169.14;1849303;77;21081;-43
2023/03/23 06:04:43;;;;;;;23.12;9.43;;;;;;;11.01;69.98;101160.70;1856245;74;21109;-42
2023/03/23 06:07:14;;;;;;;24.98;10.60;;;;;;;11.47;70.04;101161.76;1882843;75;21089;-42
2023/03/23 06:09:44;;;;;;;28.92;9.50;;;;;;;12.25;70.08;101157.98;1849706;77;21053;-40
2023/03/23 06:12:20;;;;;;;29.80;12.15;;;;;;;13.21;70.41;101167.27;1846978;77;21046;-39
2023/03/23 06:14:57;;;;;;;30.25;12.18;;;;;;;14.24;70.10;101166.62;1850190;75;21114;-39
2023/03/23 06:17:27;;;;;;;38.00;13.95;;;;;;;14.54;68.76;101164.74;1849833;77;21041;-40
2023/03/23 06:19:57;;;;;;;39.65;15.40;;;;;;;14.50;67.63;101164.03;1849622;77;21602;-39
2023/03/23 06:22:28;;;;;;;40.35;15.18;;;;;;;14.39;66.66;101165.87;1849639;77;21176;-39
2023/03/23 06:25:00;;;;;;;;;;;;;;;14.22;66.52;101165.36;1849241;75;21111;-40
2023/03/23 06:27:30;;;;;;;42.48;17.52;;;;;;;14.51;66.36;101161.75;1848823;77;20394;-40
2023/03/23 06:29:59;;;;;;;45.00;19.65;;;;;;;14.92;66.00;101168.17;1849742;77;21062;-41
2023/03/23 06:32:30;;;;;;;45.03;18.92;;;;;;;15.01;65.10;101162.41;1849606;77;21061;-40
2023/03/23 06:34:59;;;;;;;46.60;15.98;;;;;;;14.69;64.33;101157.86;1849885;75;21038;-41
2023/03/23 06:37:45;;;;;;;32.40;14.38;;;;;;;14.47;64.01;101157.55;1849602;77;21128;-43
2023/03/23 06:40:18;;;;;;;41.85;14.68;;;;;;;14.29;63.95;101165.91;1849723;77;21077;-43
2023/03/23 06:42:48;;;;;;;41.50;15.25;;;;;;;14.15;63.81;101158.63;1848796;77;21064;-40
2023/03/23 06:45:24;;;;;;;42.53;15.60;;;;;;;14.11;63.63;101151.77;1878470;74;21009;-39
2023/03/23 06:47:54;;;;;;;38.30;17.10;;;;;;;14.17;63.30;101155.92;1935283;74;21077;-38
2023/03/23 06:50:23;;;;;;;33.28;14.55;;;;;;;14.37;63.20;101154.97;1936327;74;21609;-38
2023/03/23 06:52:52;;;;;;;30.08;14.15;;;;;;;14.64;63.06;101153.66;1936361;74;21512;-38
2023/03/23 06:55:21;;;;;;;34.08;14.13;;;;;;;14.92;62.74;101146.97;1930965;74;21072;-41
2023/03/23 06:57:50;;;;;;;47.45;16.50;;;;;;;15.19;62.31;101149.13;1903052;75;21159;-41
2023/03/23 07:00:20;;;;;;;29.35;12.43;;;;;;;15.47;61.95;101149.00;1903090;75;21585;-40
2023/03/23 07:02:49;;;;;;;43.15;18.82;;;;;;;15.89;61.48;101147.19;1902992;75;21021;-40
2023/03/23 07:05:18;;;;;;;39.58;16.27;;;;;;;16.50;60.80;101142.03;1903008;75;21495;-40
2023/03/23 07:07:48;;;;;;;37.90;16.50;;;;;;;17.27;59.85;101142.37;1902535;74;21454;-38
2023/03/23 07:10:24;;;;;;;38.15;14.63;;;;;;;18.01;58.16;101141.81;1902002;75;21132;-42
2023/03/23 07:12:53;;;;;;;32.38;15.32;;;;;;;18.70;56.35;101144.44;1902988;75;21217;-42
2023/03/23 07:15:23;;;;;;;32.50;14.63;;;;;;;19.32;55.23;101140.31;1902618;74;21128;-39
2023/03/23 07:17:54;;;;;;;35.92;15.60;;;;;;;19.74;53.28;101145.80;1903025;75;21158;-38
2023/03/23 07:20:31;;;;;;;26.27;13.80;;;;;;;20.32;53.10;101143.39;1902548;75;21072;-39
2023/03/23 07:23:01;;;;;;;29.63;13.62;;;;;;;20.87;52.17;101138.92;1902997;75;21510;-40
2023/03/23 07:25:33;;;;;;;29.50;13.70;;;;;;;21.20;51.12;101129.63;1900513;75;21556;-39
2023/03/23 07:28:03;;;;;;;33.20;12.60;;;;;;;20.99;50.74;101130.81;1903119;75;21033;-39
2023/03/23 07:30:32;;;;;;;27.05;12.23;;;;;;;20.96;50.16;101128.85;1902905;75;21048;-40
2023/03/23 07:33:02;;;;;;;26.50;12.65;;;;;;;20.97;49.98;101130.08;1903004;75;21045;-39
2023/03/23 07:35:31;;;;;;;22.55;11.33;;;;;;;21.27;49.15;101131.84;1902497;74;21036;-40
2023/03/23 07:38:01;;;;;;;19.25;10.75;;;;;;;21.70;48.67;101126.64;1902558;75;21064;-40
2023/03/23 07:40:33;;;;;;;23.12;11.50;;;;;;;22.35;47.71;101129.00;1903069;75;21495;-41
2023/03/23 07:43:04;;;;;;;26.65;12.07;;;;;;;22.97;47.05;101127.86;1902426;75;21082;-41
2023/03/23 07:45:34;;;;;;;32.67;14.50;;;;;;;23.26;45.46;101131.27;1882784;75;21614;-41
2023/03/23 07:48:03;;;;;;;28.92;12.00;;;;;;;23.40;43.76;101117.45;1935009;74;21103;-40
2023/03/23 07:50:32;;;;;;;19.25;9.60;;;;;;;23.46;44.40;101118.28;1936232;74;21036;-40
2023/03/23 07:53:02;;;;;;;24.60;11.50;;;;;;;23.11;43.86;101118.16;1936238;74;21077;-40
2023/03/23 07:55:33;;;;;;;25.17;13.15;;;;;;;23.06;43.54;101117.70;1936188;74;21484;-40
2023/03/23 07:58:09;;;;;;;15.53;7.83;;;;;;;23.10;43.54;101112.42;1901609;74;21097;-40
2023/03/23 08:00:40;;;;;;;22.00;9.70;;;;;;;23.49;42.74;101109.92;1901206;74;21248;-38
2023/03/23 08:03:09;;;;;;;19.00;9.33;;;;;;;23.11;42.16;101110.11;1901707;74;21098;-38
2023/03/23 08:05:57;;;;;;;17.90;7.67;;;;;;;22.50;42.69;101107.22;1933645;74;21064;-39
2023/03/23 08:08:27;;;;;;;21.85;11.60;;;;;;;21.97;42.95;101113.34;1929563;74;21400;-38
2023/03/23 08:11:09;;;;;;;28.23;12.05;;;;;;;22.61;42.47;101116.59;1933459;74;21067;-39
2023/03/23 08:13:50;;;;;;;18.77;8.03;;;;;;;23.37;41.78;101106.98;1928472;74;21463;-41
2023/03/23 08:16:35;;;;;;;24.30;9.78;;;;;;;23.84;40.46;101110.02;1934738;74;21082;-39
2023/03/23 08:19:12;;;;;;;17.07;6.95;;;;;;;24.06;39.38;101108.93;1930735;74;21163;-38
2023/03/23 08:21:48;;;;;;;13.72;6.78;;;;;;;23.92;38.64;101104.44;1924992;74;21075;-39
2023/03/23 08:24:24;;;;;;;22.75;8.33;;;;;;;24.04;39.14;101104.19;1934969;74;21137;-39
2023/03/23 08:26:57;;;;;;;16.15;7.62;;;;;;;24.34;38.80;101099.69;1935027;74;21038;-39
2023/03/23 08:29:28;;;;;;;15.28;7.58;;;;;;;24.67;38.32;101097.59;1933204;74;21100;-40
2023/03/23 08:32:04;;;;;;;12.23;5.87;;;;;;;24.50;38.19;101095.60;1934845;74;21121;-41
2023/03/23 08:34:42;;;;;;;15.50;7.37;;;;;;;24.26;37.49;101090.98;1934391;74;21080;-42
2023/03/23 08:37:22;;;;;;;15.00;6.97;;;;;;;24.31;36.12;101093.73;1933829;74;21642;-40
2023/03/23 08:39:54;;;;;;;17.73;6.83;;;;;;;24.51;36.92;101088.70;1934815;74;21101;-40
2023/03/23 08:42:42;;;;;;;17.15;6.65;;;;;;;24.50;36.16;101083.48;1934908;74;21107;-40
2023/03/23 08:45:29;;;;;;;15.78;6.80;;;;;;;24.09;36.01;101078.23;1925407;74;21106;-42
2023/03/23 08:48:16;;;;;;;16.62;6.67;;;;;;;23.21;37.05;101075.23;1902854;75;21102;-41
2023/03/23 08:50:46;;;;;;;19.50;7.83;;;;;;;22.25;38.37;101078.89;1902842;75;21621;-42
2023/03/23 08:53:33;;;;;;;15.38;7.50;;;;;;;22.73;38.23;101069.90;1900692;75;21097;-43
2023/03/23 08:56:12;;;;;;;13.75;6.70;;;;;;;22.90;37.38;101076.50;1867039;75;21133;-43
2023/03/23 08:58:46;;;;;;;15.95;7.42;;;;;;;23.28;37.54;101063.47;1899692;75;21163;-43
2023/03/23 09:01:34;;;;;;;13.35;6.05;;;;;;;22.88;38.24;101070.92;1901558;75;21080;-42
2023/03/23 09:04:23;;;;;;;15.53;7.67;;;;;;;23.24;37.71;101063.35;1901417;75;21069;-42
2023/03/23 09:07:10;;;;;;;13.75;6.70;;;;;;;23.54;38.10;101060.31;1850154;77;21503;-43
2023/03/23 09:09:40;;;;;;;19.75;8.90;;;;;;;24.50;37.61;101057.41;1886179;75;22118;-42
2023/03/23 09:12:09;;;;;;;14.75;6.55;;;;;;;25.12;37.02;101048.94;1902914;75;21115;-41
2023/03/23 09:14:39;;;;;;;13.90;6.00;;;;;;;25.49;36.29;101061.58;1902988;75;21040;-41
2023/03/23 09:17:08;;;;;;;13.08;6.70;;;;;;;25.67;36.02;101053.55;1902861;75;21102;-44
2023/03/23 09:19:37;;;;;;;16.60;7.62;;;;;;;25.78;35.02;101050.63;1902997;75;21455;-41
2023/03/23 09:22:05;;;;;;;16.20;7.25;;;;;;;25.89;34.75;101047.72;1902972;75;21045;-43
2023/03/23 09:24:34;;;;;;;16.48;6.47;;;;;;;26.18;34.82;101042.14;1903010;75;21033;-41
2023/03/23 09:27:03;;;;;;;13.68;5.33;;;;;;;26.38;34.80;101044.69;1902879;75;21036;-41
2023/03/23 09:29:32;;;;;;;18.37;8.28;;;;;;;26.40;33.68;101033.23;1902896;75;21483;-42
2023/03/23 09:32:00;;;;;;;15.88;6.50;;;;;;;26.30;33.51;101039.20;1903226;75;21540;-42
2023/03/23 09:34:29;;;;;;;16.65;7.20;;;;;;;26.43;33.81;101038.33;1903085;75;21033;-41
2023/03/23 09:36:59;;;;;;;14.03;6.08;;;;;;;26.59;34.02;101028.97;1903024;75;21017;-41
2023/03/23 09:39:28;;;;;;;15.72;8.10;;;;;;;26.18;34.08;101030.00;1903116;75;21126;-43
2023/03/23 09:42:05;;;;;;;14.55;7.17;;;;;;;24.86;35.04;101033.42;1902884;75;21049;-42
2023/03/23 09:44:46;;;;;;;16.75;8.00;;;;;;;24.73;35.72;101030.20;1903070;75;21037;-42
2023/03/23 09:47:33;;;;;;;18.85;8.73;;;;;;;24.56;35.19;101028.59;1903033;75;21116;-41
2023/03/23 09:50:06;;;;;;;17.02;7.72;;;;;;;24.37;35.66;101034.83;1902751;75;21041;-40
2023/03/23 09:52:37;;;;;;;13.60;6.33;;;;;;;24.53;35.65;101024.00;1902629;75;21115;-42
2023/03/23 09:55:08;;;;;;;15.20;6.72;;;;;;;24.50;35.98;101026.46;1897182;75;21052;-41
2023/03/23 09:57:56;;;;;;;14.30;6.55;;;;;;;24.60;36.05;101021.92;1903117;75;21503;-43
2023/03/23 10:00:36;;;;;;;11.50;5.90;;;;;;;25.21;36.04;101023.80;1903010;75;21302;-41
2023/03/23 10:03:17;;;;;;;14.25;6.15;;;;;;;25.69;35.43;101029.97;1903035;75;21182;-44
2023/03/23 10:05:52;;;;;;;17.35;6.90;;;;;;;25.64;34.68;101027.74;1903166;75;21597;-42
2023/03/23 10:08:23;;;;;;;17.07;7.53;;;;;;;25.79;34.94;101026.22;1902885;75;21009;-42
2023/03/23 10:11:07;;;;;;;13.15;6.67;;;;;;;25.90;34.92;101012.17;1903080;75;21107;-43
2023/03/23 10:13:52;;;;;;;;;;;;;;;26.00;34.81;101014.31;1905784;75;21535;-42
2023/03/23 10:16:24;;;;;;;14.53;5.92;;;;;;;25.96;35.14;101016.97;1903058;75;20123;-42
2023/03/23 10:19:01;;;;;;;16.05;7.58;;;;;;;25.81;35.37;101008.02;1903042;75;21021;-42
2023/03/23 10:21:32;;;;;;;14.83;6.12;;;;;;;25.36;35.27;101012.93;1903137;75;21580;-42
2023/03/23 10:24:07;;;;;;;13.70;6.55;;;;;;;25.06;35.65;101008.62;1903105;75;21118;-43
2023/03/23 10:26:58;;;;;;;21.60;6.97;;;;;;;25.20;35.80;100997.36;1903139;75;21053;-42
2023/03/23 10:29:33;;;;;;;12.88;5.03;;;;;;;25.49;35.70;101000.92;1903127;75;21448;-41
2023/03/23 10:32:04;;;;;;;14.68;6.50;;;;;;;25.61;35.58;101005.11;1902897;75;21045;-43
2023/03/23 10:34:41;;;;;;;14.83;6.92;;;;;;;25.62;35.30;101000.09;1902621;75;21539;-44
2023/03/23 10:37:13;;;;;;;17.00;6.05;;;;;;;25.53;35.03;101003.19;1903150;75;21048;-44
2023/03/23 10:39:51;;;;;;;10.88;6.22;;;;;;;25.30;35.24;100995.98;1903172;75;21119;-42
2023/03/23 10:42:28;;;;;;;10.40;5.58;;;;;;;25.12;35.51;100997.27;1900332;75;21049;-41
2023/03/23 10:45:01;;;;;;;14.33;5.53;;;;;;;24.84;35.53;100989.63;1903105;75;21114;-42
2023/03/23 10:47:29;;;;;;;12.85;5.92;;;;;;;24.72;35.86;100997.55;1901597;75;21479;-42
2023/03/23 10:50:02;;;;;;;12.15;5.37;;;;;;;24.47;35.96;100993.96;1903027;75;21028;-42
2023/03/23 10:52:37;;;;;;;13.25;5.78;;;;;;;24.23;36.21;100993.05;1902968;75;21017;-41
2023/03/23 10:55:22;;;;;;;15.00;6.58;;;;;;;23.83;36.55;100995.39;1903093;75;21083;-42
2023/03/23 10:58:03;;;;;;;15.15;6.00;;;;;;;23.45;37.02;100999.67;1903012;75;21106;-41
2023/03/23 11:00:33;;;;;;;18.42;6.60;;;;;;;23.15;37.52;100998.35;1903143;75;21045;-42
2023/03/23 11:03:06;;;;;;;12.58;5.67;;;;;;;22.78;38.02;100997.52;1902991;75;21020;-42
2023/03/23 11:05:40;;;;;;;14.45;7.40;;;;;;;22.62;38.41;100985.92;1903262;75;21545;-42
2023/03/23 11:08:18;;;;;;;14.63;5.97;;;;;;;22.63;38.70;100995.20;1903041;75;21033;-42
2023/03/23 11:10:53;;;;;;;13.03;5.80;;;;;;;22.47;38.71;100995.65;1898100;75;21053;-42
2023/03/23 11:13:25;;;;;;;13.78;6.28;;;;;;;22.02;39.34;100997.66;1909609;75;21056;-42
2023/03/23 11:15:53;;;;;;;14.05;5.97;;;;;;;21.71;39.76;100999.72;1909495;75;21036;-41
2023/03/23 11:18:28;;;;;;;14.50;6.25;;;;;;;21.58;39.99;100995.01;1909623;75;21028;-42
2023/03/23 11:20:59;;;;;;;12.93;6.25;;;;;;;21.56;40.27;100988.43;1907809;75;21079;-41
2023/03/23 11:23:41;;;;;;;13.40;6.50;;;;;;;21.53;40.49;100988.67;1909664;75;21499;-42
2023/03/23 11:26:16;;;;;;;13.00;6.35;;;;;;;21.52;40.71;100994.98;1909702;75;21045;-43
2023/03/23 11:29:12;;;;;;;12.25;5.92;;;;;;;21.46;40.89;100996.84;1909537;75;21608;-42
2023/03/23 11:31:50;;;;;;;18.10;6.37;;;;;;;21.42;41.05;100991.84;1882032;75;21048;-42
2023/03/23 11:34:28;;;;;;;17.52;6.85;;;;;;;21.34;41.25;100996.45;1909670;75;21040;-42
2023/03/23 11:37:08;;;;;;;14.90;6.20;;;;;;;21.22;41.39;100996.95;1909563;75;21122;-43
2023/03/23 11:39:58;;;;;;;17.02;5.97;;;;;;;21.23;41.52;100992.44;1909583;75;21053;-41
2023/03/23 11:42:40;;;;;;;15.83;6.90;;;;;;;21.25;41.65;100994.51;1908584;75;21158;-42
2023/03/23 11:45:23;;;;;;;14.50;6.87;;;;;;;21.16;41.72;100990.77;1909501;75;21135;-44
2023/03/23 11:48:14;;;;;;;15.43;6.80;;;;;;;21.09;41.85;100986.37;1909670;75;21040;-42